createdAt,value
2019-02-23T00:00:07.371Z,0
2019-02-23T00:01:17.301Z,0
2019-02-23T00:02:27.220Z,0
2019-02-23T00:03:37.145Z,0
2019-02-23T00:04:47.066Z,0
2019-02-23T00:05:56.985Z,0
2019-02-23T00:07:06.902Z,0
2019-02-23T00:08:16.828Z,0
2019-02-23T00:09:26.754Z,0
2019-02-23T00:10:36.676Z,0
2019-02-23T00:11:46.604Z,0
2019-02-23T00:12:56.522Z,0
2019-02-23T00:14:06.453Z,0
2019-02-23T00:15:16.387Z,0
2019-02-23T00:16:26.303Z,0
2019-02-23T00:17:36.224Z,0
2019-02-23T00:18:46.142Z,0
2019-02-23T00:19:56.060Z,0
2019-02-23T00:21:05.986Z,0
2019-02-23T00:22:15.907Z,0
2019-02-23T00:23:26.014Z,0
2019-02-23T00:24:35.938Z,0
2019-02-23T00:25:45.860Z,0
2019-02-23T00:26:55.778Z,0
2019-02-23T00:28:05.696Z,0
2019-02-23T00:29:15.612Z,0
2019-02-23T00:30:25.531Z,0
2019-02-23T00:31:35.448Z,0
2019-02-23T00:32:45.368Z,0
2019-02-23T00:33:55.287Z,0
2019-02-23T00:35:05.323Z,0
2019-02-23T00:36:15.249Z,0
2019-02-23T00:37:25.166Z,0
2019-02-23T00:38:35.086Z,0
2019-02-23T00:39:45.082Z,0
2019-02-23T00:40:55.003Z,0
2019-02-23T00:42:04.924Z,0
2019-02-23T00:43:14.839Z,0
2019-02-23T00:44:24.754Z,0
2019-02-23T00:45:34.677Z,0
2019-02-23T00:46:44.696Z,0
2019-02-23T00:47:54.617Z,0
2019-02-23T00:49:04.540Z,0
2019-02-23T00:50:14.464Z,0
2019-02-23T00:51:24.379Z,0
2019-02-23T00:52:34.424Z,0
2019-02-23T00:53:44.095Z,0
2019-02-23T00:54:54.024Z,0
2019-02-23T00:56:03.957Z,0
2019-02-23T00:57:13.878Z,0
2019-02-23T00:58:23.814Z,0
2019-02-23T00:59:33.730Z,0
2019-02-23T01:00:43.647Z,0
2019-02-23T01:01:53.572Z,0
2019-02-23T01:03:03.504Z,0
2019-02-23T01:04:13.422Z,0
2019-02-23T01:05:23.347Z,0
2019-02-23T01:06:33.271Z,0
2019-02-23T01:07:43.199Z,0
2019-02-23T01:08:53.116Z,0
2019-02-23T01:10:03.035Z,0
2019-02-23T01:11:12.960Z,0
2019-02-23T01:12:22.882Z,0
2019-02-23T01:13:32.799Z,0
2019-02-23T01:14:42.716Z,0
2019-02-23T01:15:52.633Z,0
2019-02-23T01:17:02.569Z,0
2019-02-23T01:18:12.591Z,0
2019-02-23T01:19:22.534Z,0
2019-02-23T01:20:32.454Z,0
2019-02-23T01:21:42.376Z,0
2019-02-23T01:22:52.299Z,0
2019-02-23T01:24:02.227Z,0
2019-02-23T01:25:11.915Z,0
2019-02-23T01:26:21.841Z,0
2019-02-23T01:27:31.862Z,0
2019-02-23T01:28:41.792Z,0
2019-02-23T01:29:51.716Z,0
2019-02-23T01:31:01.637Z,0
2019-02-23T01:32:11.559Z,0
2019-02-23T01:33:21.578Z,0
2019-02-23T01:34:31.510Z,0
2019-02-23T01:35:41.430Z,0
2019-02-23T01:36:51.103Z,0
2019-02-23T01:38:01.019Z,0
2019-02-23T01:39:11.113Z,0
2019-02-23T01:40:21.036Z,0
2019-02-23T01:41:30.953Z,0
2019-02-23T01:42:40.870Z,0
2019-02-23T01:43:50.801Z,0
2019-02-23T01:45:00.832Z,0
2019-02-23T01:46:10.749Z,0
2019-02-23T01:47:20.668Z,0
2019-02-23T01:48:30.591Z,0
2019-02-23T01:49:40.516Z,0
2019-02-23T01:50:50.437Z,0
2019-02-23T01:52:00.356Z,0
2019-02-23T01:53:10.281Z,0
2019-02-23T01:54:20.204Z,0
2019-02-23T01:55:30.122Z,0
2019-02-23T01:56:40.136Z,0
2019-02-23T01:57:50.076Z,0
2019-02-23T01:59:00.002Z,0
2019-02-23T02:00:09.996Z,0
2019-02-23T02:01:19.917Z,0
2019-02-23T02:02:29.837Z,0
2019-02-23T02:03:39.753Z,0
2019-02-23T02:04:49.675Z,0
2019-02-23T02:05:59.601Z,0
2019-02-23T02:07:09.608Z,0
2019-02-23T02:08:19.631Z,0
2019-02-23T02:09:29.556Z,0
2019-02-23T02:10:39.474Z,0
2019-02-23T02:11:49.393Z,0
2019-02-23T02:12:59.354Z,0
2019-02-23T02:14:09.381Z,0
2019-02-23T02:15:19.304Z,0
2019-02-23T02:16:29.227Z,0
2019-02-23T02:17:39.231Z,0
2019-02-23T02:18:49.199Z,0
2019-02-23T02:20:10.076Z,0
2019-02-23T02:21:20.493Z,0
2019-02-23T02:22:30.417Z,0
2019-02-23T02:23:40.353Z,0
2019-02-23T02:24:50.269Z,0
2019-02-23T02:26:00.309Z,0
2019-02-23T02:27:10.229Z,0
2019-02-23T02:28:20.150Z,0
2019-02-23T02:29:29.825Z,0
2019-02-23T02:30:39.499Z,0
2019-02-23T02:31:49.430Z,0
2019-02-23T02:32:59.382Z,0
2019-02-23T02:34:09.298Z,0
2019-02-23T02:35:19.227Z,0
2019-02-23T02:36:29.170Z,0
2019-02-23T02:37:39.200Z,0
2019-02-23T02:38:49.134Z,0
2019-02-23T02:39:59.067Z,0
2019-02-23T02:41:08.742Z,0
2019-02-23T02:42:18.673Z,0
2019-02-23T02:43:28.720Z,0
2019-02-23T02:44:38.640Z,0
2019-02-23T02:45:48.576Z,0
2019-02-23T02:46:58.495Z,0
2019-02-23T02:48:08.425Z,0
2019-02-23T02:49:18.343Z,0
2019-02-23T02:50:33.837Z,0
2019-02-23T02:51:43.782Z,0
2019-02-23T02:52:53.707Z,0
2019-02-23T02:54:03.634Z,0
2019-02-23T02:55:13.601Z,0
2019-02-23T02:56:23.520Z,0
2019-02-23T02:57:33.446Z,0
2019-02-23T02:58:43.382Z,0
2019-02-23T02:59:53.303Z,0
2019-02-23T03:01:03.334Z,0
2019-02-23T03:02:13.272Z,0
2019-02-23T03:03:23.201Z,0
2019-02-23T03:04:33.135Z,0
2019-02-23T03:05:43.055Z,0
2019-02-23T03:06:53.075Z,0
2019-02-23T03:08:02.999Z,0
2019-02-23T03:09:12.921Z,0
2019-02-23T03:10:22.854Z,0
2019-02-23T03:11:32.807Z,0
2019-02-23T03:12:42.833Z,0
2019-02-23T03:13:52.759Z,0
2019-02-23T03:15:02.684Z,0
2019-02-23T03:16:12.659Z,0
2019-02-23T03:17:22.588Z,0
2019-02-23T03:18:32.626Z,0
2019-02-23T03:19:42.541Z,0
2019-02-23T03:20:52.206Z,0
2019-02-23T03:22:01.882Z,0
2019-02-23T03:23:11.812Z,0
2019-02-23T03:24:21.851Z,0
2019-02-23T03:25:31.792Z,0
2019-02-23T03:26:41.725Z,0
2019-02-23T03:27:51.649Z,0
2019-02-23T03:29:01.585Z,0
2019-02-23T03:30:11.689Z,0
2019-02-23T03:31:21.648Z,0
2019-02-23T03:32:31.625Z,0
2019-02-23T03:33:41.343Z,0
2019-02-23T03:34:51.305Z,0
2019-02-23T03:36:01.348Z,0
2019-02-23T03:37:11.268Z,0
2019-02-23T03:38:21.194Z,0
2019-02-23T03:39:31.108Z,0
2019-02-23T03:40:41.038Z,0
2019-02-23T03:41:50.963Z,0
2019-02-23T03:43:00.899Z,0
2019-02-23T03:44:10.827Z,0
2019-02-23T03:45:20.778Z,0
2019-02-23T03:46:30.712Z,0
2019-02-23T03:47:40.654Z,0
2019-02-23T03:48:50.582Z,0
2019-02-23T03:50:00.502Z,0
2019-02-23T03:51:10.435Z,0
2019-02-23T03:52:20.365Z,0
2019-02-23T03:53:30.287Z,0
2019-02-23T03:54:40.206Z,0
2019-02-23T03:55:50.129Z,0
2019-02-23T03:57:00.047Z,0
2019-02-23T03:58:09.967Z,0
2019-02-23T03:59:19.984Z,0
2019-02-23T04:00:29.918Z,0
2019-02-23T04:01:39.851Z,0
2019-02-23T04:02:49.803Z,0
2019-02-23T04:03:59.728Z,0
2019-02-23T04:05:09.949Z,0
2019-02-23T04:06:19.893Z,0
2019-02-23T04:07:29.816Z,0
2019-02-23T04:08:39.750Z,0
2019-02-23T04:09:49.677Z,0
2019-02-23T04:10:59.699Z,0
2019-02-23T04:12:09.668Z,0
2019-02-23T04:13:19.628Z,0
2019-02-23T04:14:29.553Z,0
2019-02-23T04:15:39.479Z,0
2019-02-23T04:16:49.397Z,0
2019-02-23T04:17:59.323Z,0
2019-02-23T04:19:09.259Z,0
2019-02-23T04:20:19.189Z,0
2019-02-23T04:21:29.113Z,0
2019-02-23T04:22:38.794Z,0
2019-02-23T04:23:48.816Z,0
2019-02-23T04:24:58.755Z,0
2019-02-23T04:26:08.684Z,0
2019-02-23T04:27:18.606Z,0
2019-02-23T04:28:28.534Z,0
2019-02-23T04:29:38.453Z,0
2019-02-23T04:30:48.383Z,0
2019-02-23T04:31:58.332Z,0
2019-02-23T04:33:08.286Z,0
2019-02-23T04:34:18.217Z,0
2019-02-23T04:35:28.142Z,0
2019-02-23T04:36:38.063Z,0
2019-02-23T04:37:47.736Z,0
2019-02-23T04:38:57.655Z,0
2019-02-23T04:40:07.727Z,0
2019-02-23T04:41:17.650Z,0
2019-02-23T04:42:27.592Z,0
2019-02-23T04:43:37.267Z,0
2019-02-23T04:44:47.013Z,0
2019-02-23T04:45:56.982Z,0
2019-02-23T04:47:06.904Z,0
2019-02-23T04:48:16.581Z,0
2019-02-23T04:49:28.486Z,0
2019-02-23T04:50:38.415Z,0
2019-02-23T04:51:48.440Z,0
2019-02-23T04:52:58.106Z,0
2019-02-23T04:54:08.033Z,0
2019-02-23T04:55:17.959Z,0
2019-02-23T04:56:27.886Z,0
2019-02-23T04:57:37.934Z,0
2019-02-23T04:58:47.895Z,0
2019-02-23T04:59:57.879Z,0
2019-02-23T05:01:07.820Z,0
2019-02-23T05:02:17.742Z,0
2019-02-23T05:03:27.780Z,0
2019-02-23T05:04:37.710Z,0
2019-02-23T05:05:47.624Z,0
2019-02-23T05:06:57.559Z,0
2019-02-23T05:08:07.242Z,0
2019-02-23T05:09:17.474Z,0
2019-02-23T05:10:27.401Z,0
2019-02-23T05:11:37.332Z,0
2019-02-23T05:12:47.277Z,0
2019-02-23T05:13:57.226Z,0
2019-02-23T05:15:07.480Z,0
2019-02-23T05:16:17.406Z,0
2019-02-23T05:17:27.327Z,0
2019-02-23T05:18:37.270Z,0
2019-02-23T05:19:47.193Z,0
2019-02-23T05:20:57.262Z,0
2019-02-23T05:22:07.195Z,0
2019-02-23T05:23:17.123Z,0
2019-02-23T05:24:26.790Z,0
2019-02-23T05:25:36.721Z,0
2019-02-23T05:26:46.751Z,0
2019-02-23T05:27:56.674Z,0
2019-02-23T05:29:06.355Z,0
2019-02-23T05:30:16.291Z,0
2019-02-23T05:31:29.306Z,0
2019-02-23T05:32:39.238Z,0
2019-02-23T05:33:49.158Z,0
2019-02-23T05:34:59.101Z,0
2019-02-23T05:36:09.021Z,0
2019-02-23T05:37:18.941Z,0
2019-02-23T05:38:28.866Z,0
2019-02-23T05:39:38.809Z,0
2019-02-23T05:40:48.787Z,0
2019-02-23T05:41:58.711Z,0
2019-02-23T05:43:10.911Z,0
2019-02-23T05:44:20.938Z,0
2019-02-23T05:45:30.863Z,0
2019-02-23T05:46:40.803Z,0
2019-02-23T05:47:50.727Z,0
2019-02-23T05:49:00.644Z,0
2019-02-23T05:50:10.570Z,0
2019-02-23T05:51:20.531Z,0
2019-02-23T05:52:30.466Z,0
2019-02-23T05:53:40.398Z,0
2019-02-23T05:54:50.317Z,0
2019-02-23T05:56:00.004Z,0
2019-02-23T05:57:09.944Z,0
2019-02-23T05:58:19.651Z,0
2019-02-23T05:59:29.585Z,0
2019-02-23T06:00:39.507Z,0
2019-02-23T06:01:49.536Z,0
2019-02-23T06:02:59.217Z,0
2019-02-23T06:04:08.893Z,0
2019-02-23T06:05:18.567Z,0
2019-02-23T06:06:28.498Z,0
2019-02-23T06:07:38.564Z,0
2019-02-23T06:08:48.489Z,0
2019-02-23T06:09:58.411Z,0
2019-02-23T06:11:08.347Z,0
2019-02-23T06:12:18.351Z,0
2019-02-23T06:13:28.372Z,0
2019-02-23T06:14:38.296Z,0
2019-02-23T06:15:48.226Z,0
2019-02-23T06:16:58.143Z,0
2019-02-23T06:18:08.102Z,0
2019-02-23T06:19:18.136Z,0
2019-02-23T06:20:28.080Z,0
2019-02-23T06:21:37.994Z,0
2019-02-23T06:22:49.410Z,0
2019-02-23T06:23:59.346Z,0
2019-02-23T06:25:09.312Z,0
2019-02-23T06:26:19.275Z,0
2019-02-23T06:27:29.218Z,0
2019-02-23T06:28:39.195Z,0
2019-02-23T06:29:49.196Z,5
2019-02-23T06:30:59.127Z,5
2019-02-23T06:32:09.051Z,5
2019-02-23T06:33:18.989Z,5
2019-02-23T06:34:28.927Z,5
2019-02-23T06:35:38.610Z,5
2019-02-23T06:36:48.562Z,5
2019-02-23T06:38:00.630Z,10
2019-02-23T06:39:10.549Z,10
2019-02-23T06:40:20.499Z,10
2019-02-23T06:41:30.423Z,10
2019-02-23T06:42:40.440Z,10
2019-02-23T06:43:50.369Z,10
2019-02-23T06:45:00.380Z,15
2019-02-23T06:46:10.316Z,15
2019-02-23T06:47:20.235Z,15
2019-02-23T06:48:30.258Z,15
2019-02-23T06:49:40.179Z,20
2019-02-23T06:50:50.102Z,20
2019-02-23T06:52:11.154Z,20
2019-02-23T06:53:21.088Z,25
2019-02-23T06:54:31.005Z,25
2019-02-23T06:55:40.939Z,25
2019-02-23T06:56:50.874Z,30
2019-02-23T06:58:00.799Z,30
2019-02-23T06:59:10.821Z,30
2019-02-23T07:00:20.830Z,30
2019-02-23T07:01:30.752Z,35
2019-02-23T07:02:40.684Z,35
2019-02-23T07:03:50.651Z,35
2019-02-23T07:05:00.689Z,40
2019-02-23T07:06:10.617Z,40
2019-02-23T07:07:20.550Z,40
2019-02-23T07:08:30.473Z,40
2019-02-23T07:09:40.191Z,40
2019-02-23T07:10:50.113Z,45
2019-02-23T07:12:00.035Z,45
2019-02-23T07:13:09.981Z,50
2019-02-23T07:14:19.899Z,50
2019-02-23T07:15:29.901Z,50
2019-02-23T07:16:39.919Z,55
2019-02-23T07:17:49.849Z,55
2019-02-23T07:18:59.769Z,60
2019-02-23T07:20:09.828Z,60
2019-02-23T07:21:19.747Z,65
2019-02-23T07:22:29.686Z,70
2019-02-23T07:23:39.606Z,70
2019-02-23T07:24:49.530Z,75
2019-02-23T07:25:59.450Z,75
2019-02-23T07:27:09.375Z,80
2019-02-23T07:28:20.502Z,80
2019-02-23T07:29:30.485Z,80
2019-02-23T07:30:40.401Z,80
2019-02-23T07:31:50.319Z,85
2019-02-23T07:33:00.242Z,85
2019-02-23T07:34:10.182Z,85
2019-02-23T07:35:20.106Z,90
2019-02-23T07:36:30.024Z,95
2019-02-23T07:37:39.945Z,95
2019-02-23T07:38:49.867Z,100
2019-02-23T07:39:59.887Z,100
2019-02-23T07:41:09.818Z,105
2019-02-23T07:42:19.739Z,110
2019-02-23T07:43:29.662Z,110
2019-02-23T07:44:39.335Z,115
2019-02-23T07:45:49.376Z,120
2019-02-23T07:46:59.125Z,120
2019-02-23T07:48:09.044Z,125
2019-02-23T07:49:18.963Z,125
2019-02-23T07:50:28.371Z,130
2019-02-23T07:51:38.403Z,130
2019-02-23T07:52:48.323Z,130
2019-02-23T07:53:58.250Z,130
2019-02-23T07:55:08.167Z,125
2019-02-23T07:56:18.092Z,130
2019-02-23T07:57:28.021Z,130
2019-02-23T07:58:37.944Z,130
2019-02-23T07:59:47.867Z,135
2019-02-23T08:00:57.801Z,135
2019-02-23T08:02:07.725Z,135
2019-02-23T08:03:17.744Z,140
2019-02-23T08:04:27.415Z,145
2019-02-23T08:05:37.350Z,150
2019-02-23T08:06:47.597Z,155
2019-02-23T08:07:57.534Z,150
2019-02-23T08:09:07.452Z,150
2019-02-23T08:10:17.384Z,155
2019-02-23T08:11:27.305Z,155
2019-02-23T08:12:37.240Z,160
2019-02-23T08:13:48.022Z,165
2019-02-23T08:14:58.047Z,170
2019-02-23T08:16:07.980Z,175
2019-02-23T08:17:17.979Z,185
2019-02-23T08:18:27.900Z,190
2019-02-23T08:19:37.823Z,195
2019-02-23T08:20:47.743Z,195
2019-02-23T08:21:57.665Z,200
2019-02-23T08:23:07.579Z,200
2019-02-23T08:24:17.502Z,205
2019-02-23T08:25:27.459Z,205
2019-02-23T08:26:37.473Z,205
2019-02-23T08:27:47.390Z,205
2019-02-23T08:28:57.305Z,205
2019-02-23T08:30:07.367Z,215
2019-02-23T08:31:18.213Z,220
2019-02-23T08:32:28.139Z,225
2019-02-23T08:33:38.063Z,240
2019-02-23T08:34:47.739Z,240
2019-02-23T08:35:57.716Z,245
2019-02-23T08:37:07.642Z,255
2019-02-23T08:38:17.670Z,255
2019-02-23T08:39:27.608Z,250
2019-02-23T08:40:37.528Z,245
2019-02-23T08:41:48.148Z,240
2019-02-23T08:42:58.088Z,245
2019-02-23T08:44:08.025Z,250
2019-02-23T08:45:18.034Z,255
2019-02-23T08:46:27.990Z,260
2019-02-23T08:47:37.908Z,255
2019-02-23T08:48:47.831Z,255
2019-02-23T08:49:57.773Z,245
2019-02-23T08:51:07.698Z,235
2019-02-23T08:52:17.621Z,235
2019-02-23T08:53:27.291Z,230
2019-02-23T08:54:37.211Z,235
2019-02-23T08:55:47.179Z,250
2019-02-23T08:56:57.845Z,260
2019-02-23T08:58:07.764Z,265
2019-02-23T08:59:17.685Z,290
2019-02-23T09:00:27.610Z,290
2019-02-23T09:01:37.537Z,295
2019-02-23T09:02:47.462Z,310
2019-02-23T09:03:59.367Z,320
2019-02-23T09:05:09.313Z,325
2019-02-23T09:06:19.244Z,335
2019-02-23T09:07:29.315Z,340
2019-02-23T09:08:39.245Z,315
2019-02-23T09:09:49.170Z,305
2019-02-23T09:10:59.090Z,310
2019-02-23T09:12:09.014Z,305
2019-02-23T09:13:18.943Z,300
2019-02-23T09:14:28.871Z,300
2019-02-23T09:15:38.796Z,305
2019-02-23T09:16:48.719Z,305
2019-02-23T09:17:58.638Z,310
2019-02-23T09:19:08.691Z,310
2019-02-23T09:20:28.496Z,305
2019-02-23T09:21:39.172Z,305
2019-02-23T09:22:59.383Z,305
2019-02-23T09:24:09.744Z,300
2019-02-23T09:25:19.664Z,295
2019-02-23T09:26:29.652Z,295
2019-02-23T09:27:39.587Z,295
2019-02-23T09:28:49.513Z,300
2019-02-23T09:29:59.616Z,300
2019-02-23T09:31:10.835Z,295
2019-02-23T09:32:20.763Z,290
2019-02-23T09:33:30.691Z,295
2019-02-23T09:34:40.620Z,290
2019-02-23T09:35:50.647Z,285
2019-02-23T09:37:00.568Z,285
2019-02-23T09:38:10.502Z,285
2019-02-23T09:39:20.428Z,280
2019-02-23T09:40:30.357Z,275
2019-02-23T09:41:40.279Z,270
2019-02-23T09:42:50.200Z,265
2019-02-23T09:44:00.152Z,260
2019-02-23T09:45:10.104Z,260
2019-02-23T09:46:20.041Z,265
2019-02-23T09:47:30.067Z,265
2019-02-23T09:48:39.992Z,260
2019-02-23T09:49:49.918Z,250
2019-02-23T09:50:59.846Z,255
2019-02-23T09:52:09.766Z,260
2019-02-23T09:53:21.192Z,270
2019-02-23T09:54:33.079Z,280
2019-02-23T09:55:42.999Z,295
2019-02-23T09:56:52.922Z,310
2019-02-23T09:58:02.846Z,315
2019-02-23T09:59:12.873Z,315
2019-02-23T10:00:22.579Z,305
2019-02-23T10:01:32.510Z,305
2019-02-23T10:02:42.191Z,295
2019-02-23T10:03:52.109Z,270
2019-02-23T10:05:02.131Z,265
2019-02-23T10:06:12.053Z,260
2019-02-23T10:07:21.980Z,275
2019-02-23T10:08:31.900Z,290
2019-02-23T10:09:41.825Z,315
2019-02-23T10:10:51.872Z,400
2019-02-23T10:12:01.804Z,435
2019-02-23T10:13:11.730Z,465
2019-02-23T10:14:21.705Z,435
2019-02-23T10:15:31.630Z,450
2019-02-23T10:16:41.663Z,425
2019-02-23T10:17:51.655Z,430
2019-02-23T10:19:01.574Z,440
2019-02-23T10:20:11.532Z,460
2019-02-23T10:21:21.458Z,435
2019-02-23T10:22:31.435Z,450
2019-02-23T10:23:41.357Z,465
2019-02-23T10:24:51.278Z,510
2019-02-23T10:26:01.224Z,520
2019-02-23T10:27:11.149Z,515
2019-02-23T10:28:21.172Z,510
2019-02-23T10:29:31.108Z,555
2019-02-23T10:30:41.034Z,605
2019-02-23T10:31:50.954Z,620
2019-02-23T10:33:00.893Z,630
2019-02-23T10:34:10.920Z,630
2019-02-23T10:35:20.847Z,640
2019-02-23T10:36:30.774Z,630
2019-02-23T10:37:40.701Z,615
2019-02-23T10:38:50.712Z,525
2019-02-23T10:40:00.713Z,435
2019-02-23T10:41:10.638Z,395
2019-02-23T10:42:20.643Z,380
2019-02-23T10:43:30.565Z,370
2019-02-23T10:44:40.526Z,355
2019-02-23T10:45:50.549Z,345
2019-02-23T10:47:00.484Z,335
2019-02-23T10:48:10.412Z,320
2019-02-23T10:49:20.337Z,305
2019-02-23T10:50:30.315Z,285
2019-02-23T10:51:40.286Z,270
2019-02-23T10:52:50.211Z,260
2019-02-23T10:54:00.134Z,255
2019-02-23T10:55:10.059Z,250
2019-02-23T10:56:19.992Z,245
2019-02-23T10:57:30.013Z,250
2019-02-23T10:58:39.935Z,265
2019-02-23T10:59:49.860Z,405
2019-02-23T11:00:59.845Z,495
2019-02-23T11:02:09.772Z,475
2019-02-23T11:03:19.759Z,470
2019-02-23T11:04:29.700Z,490
2019-02-23T11:05:39.626Z,505
2019-02-23T11:06:49.555Z,510
2019-02-23T11:07:59.478Z,510
2019-02-23T11:09:09.451Z,520
2019-02-23T11:10:19.387Z,540
2019-02-23T11:11:29.311Z,525
2019-02-23T11:12:39.233Z,520
2019-02-23T11:13:49.156Z,530
2019-02-23T11:14:59.128Z,530
2019-02-23T11:16:09.056Z,540
2019-02-23T11:17:18.982Z,535
2019-02-23T11:18:28.907Z,520
2019-02-23T11:19:38.847Z,550
2019-02-23T11:20:48.771Z,525
2019-02-23T11:21:58.699Z,500
2019-02-23T11:23:08.636Z,495
2019-02-23T11:24:20.757Z,540
2019-02-23T11:25:30.435Z,565
2019-02-23T11:26:40.466Z,570
2019-02-23T11:27:50.392Z,560
2019-02-23T11:29:00.335Z,550
2019-02-23T11:30:10.259Z,540
2019-02-23T11:31:20.183Z,525
2019-02-23T11:32:30.206Z,535
2019-02-23T11:33:40.132Z,540
2019-02-23T11:34:50.055Z,550
2019-02-23T11:35:59.977Z,545
2019-02-23T11:37:09.903Z,555
2019-02-23T11:38:19.855Z,555
2019-02-23T11:39:29.776Z,525
2019-02-23T11:40:39.721Z,515
2019-02-23T11:41:49.662Z,505
2019-02-23T11:42:59.593Z,495
2019-02-23T11:44:09.619Z,480
2019-02-23T11:45:19.543Z,485
2019-02-23T11:46:29.471Z,480
2019-02-23T11:47:39.405Z,480
2019-02-23T11:48:49.405Z,470
2019-02-23T11:49:59.380Z,450
2019-02-23T11:51:09.306Z,430
2019-02-23T11:52:19.234Z,435
2019-02-23T11:53:29.159Z,420
2019-02-23T11:54:38.872Z,420
2019-02-23T11:55:48.853Z,425
2019-02-23T11:56:58.787Z,430
2019-02-23T11:58:08.710Z,425
2019-02-23T11:59:18.629Z,415
2019-02-23T12:00:28.556Z,415
2019-02-23T12:01:38.588Z,415
2019-02-23T12:02:58.978Z,415
2019-02-23T12:04:08.916Z,425
2019-02-23T12:05:18.845Z,440
2019-02-23T12:06:28.769Z,445
2019-02-23T12:07:38.805Z,450
2019-02-23T12:08:48.733Z,445
2019-02-23T12:09:58.660Z,420
2019-02-23T12:11:08.590Z,415
2019-02-23T12:12:18.517Z,430
2019-02-23T12:13:28.541Z,435
2019-02-23T12:14:38.471Z,435
2019-02-23T12:15:48.405Z,415
2019-02-23T12:16:58.353Z,395
2019-02-23T12:18:08.277Z,385
2019-02-23T12:19:18.260Z,385
2019-02-23T12:20:28.184Z,385
2019-02-23T12:21:38.123Z,385
2019-02-23T12:22:48.085Z,370
2019-02-23T12:24:07.987Z,370
2019-02-23T12:25:22.883Z,375
2019-02-23T12:26:32.550Z,380
2019-02-23T12:27:42.476Z,385
2019-02-23T12:28:52.407Z,385
2019-02-23T12:30:02.337Z,390
2019-02-23T12:31:12.361Z,385
2019-02-23T12:32:22.369Z,375
2019-02-23T12:33:32.289Z,375
2019-02-23T12:34:42.219Z,370
2019-02-23T12:35:52.143Z,365
2019-02-23T12:37:04.723Z,360
2019-02-23T12:38:14.646Z,365
2019-02-23T12:39:24.571Z,360
2019-02-23T12:40:34.496Z,360
2019-02-23T12:41:44.427Z,360
2019-02-23T12:42:54.406Z,365
2019-02-23T12:44:04.342Z,380
2019-02-23T12:45:14.272Z,390
2019-02-23T12:46:24.194Z,375
2019-02-23T12:47:34.129Z,360
2019-02-23T12:48:44.115Z,335
2019-02-23T12:49:54.042Z,330
2019-02-23T12:51:03.971Z,345
2019-02-23T12:52:13.895Z,350
2019-02-23T12:53:23.830Z,345
2019-02-23T12:54:33.857Z,330
2019-02-23T12:55:43.779Z,315
2019-02-23T12:56:53.698Z,310
2019-02-23T12:58:03.622Z,330
2019-02-23T12:59:13.578Z,340
2019-02-23T13:00:23.612Z,345
2019-02-23T13:01:33.533Z,350
2019-02-23T13:02:43.456Z,340
2019-02-23T13:03:53.452Z,335
2019-02-23T13:05:03.377Z,330
2019-02-23T13:06:13.350Z,335
2019-02-23T13:07:23.346Z,335
2019-02-23T13:08:33.274Z,345
2019-02-23T13:09:43.196Z,350
2019-02-23T13:10:53.135Z,350
2019-02-23T13:12:03.114Z,345
2019-02-23T13:13:13.045Z,330
2019-02-23T13:14:22.965Z,320
2019-02-23T13:15:32.886Z,315
2019-02-23T13:16:42.810Z,310
2019-02-23T13:17:52.790Z,300
2019-02-23T13:19:02.709Z,305
2019-02-23T13:20:12.641Z,305
2019-02-23T13:21:22.560Z,325
2019-02-23T13:22:32.567Z,350
2019-02-23T13:23:42.598Z,355
2019-02-23T13:24:52.529Z,355
2019-02-23T13:26:02.456Z,330
2019-02-23T13:27:12.394Z,320
2019-02-23T13:28:22.325Z,335
2019-02-23T13:29:32.357Z,345
2019-02-23T13:30:42.279Z,350
2019-02-23T13:31:52.213Z,355
2019-02-23T13:33:02.137Z,340
2019-02-23T13:34:12.074Z,325
2019-02-23T13:35:22.046Z,310
2019-02-23T13:36:31.970Z,315
2019-02-23T13:37:41.902Z,315
2019-02-23T13:38:51.824Z,320
2019-02-23T13:40:01.748Z,330
2019-02-23T13:41:11.773Z,320
2019-02-23T13:42:21.693Z,315
2019-02-23T13:43:31.618Z,315
2019-02-23T13:44:41.544Z,325
2019-02-23T13:45:51.466Z,325
2019-02-23T13:47:01.392Z,320
2019-02-23T13:48:11.316Z,315
2019-02-23T13:49:21.247Z,310
2019-02-23T13:50:31.169Z,305
2019-02-23T13:51:41.095Z,300
2019-02-23T13:52:51.079Z,290
2019-02-23T13:54:01.015Z,280
2019-02-23T13:55:10.937Z,280
2019-02-23T13:56:21.613Z,280
2019-02-23T13:57:31.543Z,285
2019-02-23T13:58:41.465Z,290
2019-02-23T13:59:51.424Z,280
2019-02-23T14:01:01.350Z,280
2019-02-23T14:02:11.287Z,280
2019-02-23T14:03:21.212Z,285
2019-02-23T14:04:33.222Z,285
2019-02-23T14:05:43.143Z,280
2019-02-23T14:06:53.123Z,275
2019-02-23T14:08:03.057Z,270
2019-02-23T14:09:12.981Z,275
2019-02-23T14:10:23.011Z,275
2019-02-23T14:11:34.523Z,280
2019-02-23T14:12:44.459Z,285
2019-02-23T14:13:54.404Z,280
2019-02-23T14:15:04.341Z,280
2019-02-23T14:16:14.361Z,285
2019-02-23T14:17:24.284Z,285
2019-02-23T14:18:34.210Z,275
2019-02-23T14:19:44.130Z,265
2019-02-23T14:20:54.053Z,260
2019-02-23T14:22:03.825Z,250
2019-02-23T14:23:13.754Z,240
2019-02-23T14:24:23.677Z,235
2019-02-23T14:25:33.632Z,225
2019-02-23T14:26:43.566Z,220
2019-02-23T14:27:53.586Z,210
2019-02-23T14:29:03.512Z,210
2019-02-23T14:30:13.442Z,210
2019-02-23T14:31:23.367Z,210
2019-02-23T14:32:33.322Z,195
2019-02-23T14:33:43.295Z,165
2019-02-23T14:34:53.228Z,185
2019-02-23T14:36:03.158Z,185
2019-02-23T14:37:13.087Z,175
2019-02-23T14:38:23.051Z,175
2019-02-23T14:39:33.114Z,175
2019-02-23T14:40:43.112Z,180
2019-02-23T14:41:53.052Z,175
2019-02-23T14:43:03.198Z,175
2019-02-23T14:44:13.340Z,170
2019-02-23T14:45:23.526Z,165
2019-02-23T14:46:33.563Z,135
2019-02-23T14:47:43.296Z,130
2019-02-23T14:48:53.316Z,110
2019-02-23T14:50:03.307Z,110
2019-02-23T14:51:13.423Z,115
2019-02-23T14:52:23.479Z,115
2019-02-23T14:53:33.479Z,140
2019-02-23T14:54:43.206Z,135
2019-02-23T14:55:53.076Z,135
2019-02-23T14:57:03.194Z,130
2019-02-23T14:58:13.182Z,140
2019-02-23T14:59:23.167Z,135
2019-02-23T15:00:33.087Z,135
2019-02-23T15:01:45.790Z,130
2019-02-23T15:02:55.819Z,125
2019-02-23T15:04:07.161Z,125
2019-02-23T15:05:16.837Z,125
2019-02-23T15:06:26.782Z,130
2019-02-23T15:07:36.709Z,130
2019-02-23T15:08:46.437Z,125
2019-02-23T15:09:56.362Z,110
2019-02-23T15:11:06.290Z,105
2019-02-23T15:12:16.214Z,100
2019-02-23T15:13:26.134Z,95
2019-02-23T15:14:36.156Z,100
2019-02-23T15:15:46.152Z,95
2019-02-23T15:16:56.071Z,100
2019-02-23T15:18:06.029Z,95
2019-02-23T15:19:15.951Z,95
2019-02-23T15:20:25.920Z,100
2019-02-23T15:21:35.841Z,85
2019-02-23T15:22:47.896Z,85
2019-02-23T15:23:58.491Z,85
2019-02-23T15:25:20.110Z,85
2019-02-23T15:26:30.031Z,75
2019-02-23T15:27:39.952Z,75
2019-02-23T15:28:49.873Z,75
2019-02-23T15:30:00.001Z,70
2019-02-23T15:31:09.973Z,70
2019-02-23T15:32:19.898Z,65
2019-02-23T15:33:31.307Z,65
2019-02-23T15:34:41.341Z,60
2019-02-23T15:35:52.343Z,60
2019-02-23T15:37:10.436Z,55
2019-02-23T15:38:20.422Z,55
2019-02-23T15:39:32.774Z,50
2019-02-23T15:40:43.083Z,50
2019-02-23T15:41:52.882Z,45
2019-02-23T15:43:03.125Z,45
2019-02-23T15:44:12.717Z,40
2019-02-23T15:45:22.882Z,40
2019-02-23T15:46:34.278Z,40
2019-02-23T15:47:44.417Z,35
2019-02-23T15:48:54.707Z,35
2019-02-23T15:50:17.900Z,30
2019-02-23T15:51:27.950Z,30
2019-02-23T15:52:38.003Z,30
2019-02-23T15:53:48.062Z,30
2019-02-23T15:54:58.015Z,25
2019-02-23T15:56:07.959Z,25
2019-02-23T15:57:17.888Z,25
2019-02-23T15:58:27.808Z,25
2019-02-23T15:59:37.780Z,25
2019-02-23T16:00:47.710Z,20
2019-02-23T16:01:57.629Z,20
2019-02-23T16:03:07.641Z,20
2019-02-23T16:04:17.723Z,20
2019-02-23T16:05:27.670Z,20
2019-02-23T16:06:41.056Z,20
2019-02-23T16:07:50.996Z,15
2019-02-23T16:09:00.920Z,15
2019-02-23T16:10:10.843Z,15
2019-02-23T16:11:20.838Z,15
2019-02-23T16:13:55.094Z,15
2019-02-23T16:15:05.140Z,10
2019-02-23T16:16:15.158Z,10
2019-02-23T16:17:25.091Z,10
2019-02-23T16:18:35.069Z,10
2019-02-23T16:19:45.009Z,10
2019-02-23T16:20:54.930Z,10
2019-02-23T16:22:04.701Z,5
2019-02-23T16:23:14.622Z,5
2019-02-23T16:24:24.545Z,5
2019-02-23T16:25:45.657Z,5
2019-02-23T16:26:55.663Z,5
2019-02-23T16:28:05.380Z,5
2019-02-23T16:29:15.307Z,5
2019-02-23T16:30:25.348Z,5
2019-02-23T16:31:35.267Z,5
2019-02-23T16:32:45.262Z,0
2019-02-23T16:33:55.281Z,0
2019-02-23T16:35:05.270Z,0
2019-02-23T16:36:15.199Z,0
2019-02-23T16:37:24.883Z,0
2019-02-23T16:38:34.641Z,0
2019-02-23T16:39:47.662Z,0